sensor_id;sensor_type;location;lat;lon;timestamp;temperature;humidity
40638;DHT22;26336;44.696;10.622;2024-02-15T00:01:47;9.30;99.90
40638;DHT22;26336;44.696;10.622;2024-02-15T00:04:51;9.00;99.90
40638;DHT22;26336;44.696;10.622;2024-02-15T00:07:55;9.00;99.90
40638;DHT22;26336;44.696;10.622;2024-02-15T00:10:59;9.10;99.90
40638;DHT22;26336;44.696;10.622;2024-02-15T00:14:03;9.10;99.90
40638;DHT22;26336;44.696;10.622;2024-02-15T00:17:07;9.00;99.90
40638;DHT22;26336;44.696;10.622;2024-02-15T00:20:11;9.00;99.90
40638;DHT22;26336;44.696;10.622;2024-02-15T00:23:16;9.10;99.90
40638;DHT22;26336;44.696;10.622;2024-02-15T00:26:20;9.10;99.90
40638;DHT22;26336;44.696;10.622;2024-02-15T00:29:24;9.10;99.90
40638;DHT22;26336;44.696;10.622;2024-02-15T00:32:29;9.10;99.90
40638;DHT22;26336;44.696;10.622;2024-02-15T00:35:36;9.00;99.90
40638;DHT22;26336;44.696;10.622;2024-02-15T00:38:41;9.10;99.90
40638;DHT22;26336;44.696;10.622;2024-02-15T00:41:46;9.00;99.90
40638;DHT22;26336;44.696;10.622;2024-02-15T00:44:50;9.00;99.90
40638;DHT22;26336;44.696;10.622;2024-02-15T00:47:54;9.00;99.90
40638;DHT22;26336;44.696;10.622;2024-02-15T00:50:59;9.00;99.90
40638;DHT22;26336;44.696;10.622;2024-02-15T00:54:03;8.90;99.90
40638;DHT22;26336;44.696;10.622;2024-02-15T00:57:07;8.90;99.90
40638;DHT22;26336;44.696;10.622;2024-02-15T01:00:12;8.90;99.90
40638;DHT22;26336;44.696;10.622;2024-02-15T01:03:16;8.90;99.90
40638;DHT22;26336;44.696;10.622;2024-02-15T01:06:20;8.90;99.90
40638;DHT22;26336;44.696;10.622;2024-02-15T01:09:24;8.90;99.90
40638;DHT22;26336;44.696;10.622;2024-02-15T01:12:28;8.80;99.90
40638;DHT22;26336;44.696;10.622;2024-02-15T01:15:32;8.70;99.90
40638;DHT22;26336;44.696;10.622;2024-02-15T01:18:36;8.70;99.90
40638;DHT22;26336;44.696;10.622;2024-02-15T01:21:41;8.70;99.90
40638;DHT22;26336;44.696;10.622;2024-02-15T01:24:47;8.70;99.90
40638;DHT22;26336;44.696;10.622;2024-02-15T01:27:51;8.70;99.90
40638;DHT22;26336;44.696;10.622;2024-02-15T01:30:55;8.60;99.90
40638;DHT22;26336;44.696;10.622;2024-02-15T01:33:59;8.60;99.90
40638;DHT22;26336;44.696;10.622;2024-02-15T01:37:03;8.60;99.90
40638;DHT22;26336;44.696;10.622;2024-02-15T01:40:08;8.60;99.90
40638;DHT22;26336;44.696;10.622;2024-02-15T01:43:14;8.60;99.90
40638;DHT22;26336;44.696;10.622;2024-02-15T01:46:20;8.50;99.90
40638;DHT22;26336;44.696;10.622;2024-02-15T01:49:25;8.50;99.90
40638;DHT22;26336;44.696;10.622;2024-02-15T01:52:31;8.50;99.90
40638;DHT22;26336;44.696;10.622;2024-02-15T01:55:35;8.50;99.90
40638;DHT22;26336;44.696;10.622;2024-02-15T01:58:40;8.50;99.90
40638;DHT22;26336;44.696;10.622;2024-02-15T02:01:45;8.40;99.90
40638;DHT22;26336;44.696;10.622;2024-02-15T02:04:50;8.40;99.90
40638;DHT22;26336;44.696;10.622;2024-02-15T02:07:54;8.40;99.90
40638;DHT22;26336;44.696;10.622;2024-02-15T02:10:59;8.40;99.90
40638;DHT22;26336;44.696;10.622;2024-02-15T02:14:03;8.30;99.90
40638;DHT22;26336;44.696;10.622;2024-02-15T02:17:12;8.30;99.90
40638;DHT22;26336;44.696;10.622;2024-02-15T02:20:17;8.30;99.90
40638;DHT22;26336;44.696;10.622;2024-02-15T02:23:21;8.30;99.90
40638;DHT22;26336;44.696;10.622;2024-02-15T02:26:27;8.30;99.90
40638;DHT22;26336;44.696;10.622;2024-02-15T02:29:31;8.30;99.90
40638;DHT22;26336;44.696;10.622;2024-02-15T02:32:36;8.30;99.90
40638;DHT22;26336;44.696;10.622;2024-02-15T02:35:39;8.20;99.90
40638;DHT22;26336;44.696;10.622;2024-02-15T02:38:43;8.20;99.90
40638;DHT22;26336;44.696;10.622;2024-02-15T02:41:48;8.20;99.90
40638;DHT22;26336;44.696;10.622;2024-02-15T02:44:52;8.20;99.90
40638;DHT22;26336;44.696;10.622;2024-02-15T02:47:56;8.10;99.90
40638;DHT22;26336;44.696;10.622;2024-02-15T02:51:00;8.10;99.90
40638;DHT22;26336;44.696;10.622;2024-02-15T02:54:04;8.10;99.90
40638;DHT22;26336;44.696;10.622;2024-02-15T02:57:10;8.00;99.90
40638;DHT22;26336;44.696;10.622;2024-02-15T03:00:16;8.00;99.90
40638;DHT22;26336;44.696;10.622;2024-02-15T03:03:20;8.00;99.90
40638;DHT22;26336;44.696;10.622;2024-02-15T03:06:24;7.90;99.90
40638;DHT22;26336;44.696;10.622;2024-02-15T03:09:31;7.90;99.90
40638;DHT22;26336;44.696;10.622;2024-02-15T03:12:37;7.80;99.90
40638;DHT22;26336;44.696;10.622;2024-02-15T03:15:42;7.80;99.90
40638;DHT22;26336;44.696;10.622;2024-02-15T03:18:45;7.80;99.90
40638;DHT22;26336;44.696;10.622;2024-02-15T03:21:49;7.80;99.90
40638;DHT22;26336;44.696;10.622;2024-02-15T03:24:53;7.80;99.90
40638;DHT22;26336;44.696;10.622;2024-02-15T03:27:59;7.80;99.90
40638;DHT22;26336;44.696;10.622;2024-02-15T03:31:07;7.80;99.90
40638;DHT22;26336;44.696;10.622;2024-02-15T03:34:11;7.70;99.90
40638;DHT22;26336;44.696;10.622;2024-02-15T03:37:15;7.70;99.90
40638;DHT22;26336;44.696;10.622;2024-02-15T03:40:20;7.70;99.90
40638;DHT22;26336;44.696;10.622;2024-02-15T03:43:24;7.60;99.90
40638;DHT22;26336;44.696;10.622;2024-02-15T03:46:28;7.60;99.90
40638;DHT22;26336;44.696;10.622;2024-02-15T03:49:32;7.60;99.90
40638;DHT22;26336;44.696;10.622;2024-02-15T03:52:39;7.50;99.90
40638;DHT22;26336;44.696;10.622;2024-02-15T03:55:44;7.50;99.90
40638;DHT22;26336;44.696;10.622;2024-02-15T03:58:48;7.40;99.90
40638;DHT22;26336;44.696;10.622;2024-02-15T04:01:54;7.20;99.90
40638;DHT22;26336;44.696;10.622;2024-02-15T04:04:58;7.20;99.90
40638;DHT22;26336;44.696;10.622;2024-02-15T04:08:02;7.20;99.90
40638;DHT22;26336;44.696;10.622;2024-02-15T04:11:06;7.30;99.90
40638;DHT22;26336;44.696;10.622;2024-02-15T04:14:13;7.30;99.90
40638;DHT22;26336;44.696;10.622;2024-02-15T04:17:18;7.40;99.90
40638;DHT22;26336;44.696;10.622;2024-02-15T04:20:24;7.30;99.90
40638;DHT22;26336;44.696;10.622;2024-02-15T04:23:29;7.40;99.90
40638;DHT22;26336;44.696;10.622;2024-02-15T04:26:33;7.30;99.90
40638;DHT22;26336;44.696;10.622;2024-02-15T04:29:37;7.40;99.90
40638;DHT22;26336;44.696;10.622;2024-02-15T04:32:44;7.30;99.90
40638;DHT22;26336;44.696;10.622;2024-02-15T04:35:48;7.30;99.90
40638;DHT22;26336;44.696;10.622;2024-02-15T04:38:54;7.30;99.90
40638;DHT22;26336;44.696;10.622;2024-02-15T04:41:57;7.30;99.90
40638;DHT22;26336;44.696;10.622;2024-02-15T04:45:01;7.20;99.90
40638;DHT22;26336;44.696;10.622;2024-02-15T04:48:07;7.10;99.90
40638;DHT22;26336;44.696;10.622;2024-02-15T04:51:11;6.90;99.90
40638;DHT22;26336;44.696;10.622;2024-02-15T04:54:15;6.90;99.90
40638;DHT22;26336;44.696;10.622;2024-02-15T04:57:19;7.00;99.90
40638;DHT22;26336;44.696;10.622;2024-02-15T05:00:23;7.00;99.90
40638;DHT22;26336;44.696;10.622;2024-02-15T05:03:29;7.00;99.90
40638;DHT22;26336;44.696;10.622;2024-02-15T05:06:33;7.00;99.90
40638;DHT22;26336;44.696;10.622;2024-02-15T05:09:37;7.00;99.90
40638;DHT22;26336;44.696;10.622;2024-02-15T05:12:41;7.10;99.90
40638;DHT22;26336;44.696;10.622;2024-02-15T05:15:46;7.00;99.90
40638;DHT22;26336;44.696;10.622;2024-02-15T05:18:50;7.10;99.90
40638;DHT22;26336;44.696;10.622;2024-02-15T05:21:54;7.10;99.90
40638;DHT22;26336;44.696;10.622;2024-02-15T05:24:59;7.10;99.90
40638;DHT22;26336;44.696;10.622;2024-02-15T05:28:03;7.00;99.90
40638;DHT22;26336;44.696;10.622;2024-02-15T05:31:19;7.00;99.90
40638;DHT22;26336;44.696;10.622;2024-02-15T05:34:24;7.00;99.90
40638;DHT22;26336;44.696;10.622;2024-02-15T05:37:28;6.90;99.90
40638;DHT22;26336;44.696;10.622;2024-02-15T05:40:32;6.90;99.90
40638;DHT22;26336;44.696;10.622;2024-02-15T05:43:37;6.90;99.90
40638;DHT22;26336;44.696;10.622;2024-02-15T05:46:41;6.90;99.90
40638;DHT22;26336;44.696;10.622;2024-02-15T05:49:45;7.00;99.90
40638;DHT22;26336;44.696;10.622;2024-02-15T05:52:50;7.00;99.90
40638;DHT22;26336;44.696;10.622;2024-02-15T05:55:58;7.00;99.90
40638;DHT22;26336;44.696;10.622;2024-02-15T05:59:02;6.90;99.90
40638;DHT22;26336;44.696;10.622;2024-02-15T06:02:13;6.90;99.90
40638;DHT22;26336;44.696;10.622;2024-02-15T06:05:17;6.90;99.90
40638;DHT22;26336;44.696;10.622;2024-02-15T06:08:21;6.90;99.90
40638;DHT22;26336;44.696;10.622;2024-02-15T06:11:27;6.90;99.90
40638;DHT22;26336;44.696;10.622;2024-02-15T06:14:31;6.80;99.90
40638;DHT22;26336;44.696;10.622;2024-02-15T06:17:37;6.80;99.90
40638;DHT22;26336;44.696;10.622;2024-02-15T06:20:41;6.80;99.90
40638;DHT22;26336;44.696;10.622;2024-02-15T06:23:46;6.80;99.90
40638;DHT22;26336;44.696;10.622;2024-02-15T06:26:52;6.70;99.90
40638;DHT22;26336;44.696;10.622;2024-02-15T06:30:01;6.70;99.90
40638;DHT22;26336;44.696;10.622;2024-02-15T06:33:24;6.70;99.90
40638;DHT22;26336;44.696;10.622;2024-02-15T06:36:54;6.70;99.90
40638;DHT22;26336;44.696;10.622;2024-02-15T06:40:17;6.70;99.90
40638;DHT22;26336;44.696;10.622;2024-02-15T06:43:21;6.70;99.90
40638;DHT22;26336;44.696;10.622;2024-02-15T06:46:26;6.70;99.90
40638;DHT22;26336;44.696;10.622;2024-02-15T06:49:29;6.70;99.90
40638;DHT22;26336;44.696;10.622;2024-02-15T06:52:33;6.70;99.90
40638;DHT22;26336;44.696;10.622;2024-02-15T06:55:38;6.70;99.90
40638;DHT22;26336;44.696;10.622;2024-02-15T06:58:43;6.70;99.90
40638;DHT22;26336;44.696;10.622;2024-02-15T07:01:47;6.70;99.90
40638;DHT22;26336;44.696;10.622;2024-02-15T07:04:50;6.80;99.90
40638;DHT22;26336;44.696;10.622;2024-02-15T07:07:56;6.80;99.90
40638;DHT22;26336;44.696;10.622;2024-02-15T07:11:00;6.80;99.90
40638;DHT22;26336;44.696;10.622;2024-02-15T07:14:05;6.80;99.90
40638;DHT22;26336;44.696;10.622;2024-02-15T07:17:10;6.80;99.90
40638;DHT22;26336;44.696;10.622;2024-02-15T07:20:14;6.80;99.90
40638;DHT22;26336;44.696;10.622;2024-02-15T07:23:20;6.90;99.90
40638;DHT22;26336;44.696;10.622;2024-02-15T07:26:25;6.90;99.90
40638;DHT22;26336;44.696;10.622;2024-02-15T07:29:29;6.90;99.90
40638;DHT22;26336;44.696;10.622;2024-02-15T07:32:34;7.00;99.90
40638;DHT22;26336;44.696;10.622;2024-02-15T07:35:38;7.00;99.90
40638;DHT22;26336;44.696;10.622;2024-02-15T07:38:42;7.00;99.90
40638;DHT22;26336;44.696;10.622;2024-02-15T07:41:49;7.10;99.90
40638;DHT22;26336;44.696;10.622;2024-02-15T07:44:54;7.10;99.90
40638;DHT22;26336;44.696;10.622;2024-02-15T07:47:58;7.20;99.90
40638;DHT22;26336;44.696;10.622;2024-02-15T07:51:02;7.30;99.90
40638;DHT22;26336;44.696;10.622;2024-02-15T07:54:06;7.30;99.90
40638;DHT22;26336;44.696;10.622;2024-02-15T07:57:10;7.40;99.90
40638;DHT22;26336;44.696;10.622;2024-02-15T08:00:14;7.50;99.90
40638;DHT22;26336;44.696;10.622;2024-02-15T08:03:20;7.60;99.90
40638;DHT22;26336;44.696;10.622;2024-02-15T08:06:24;7.70;99.90
40638;DHT22;26336;44.696;10.622;2024-02-15T08:09:31;7.80;99.90
40638;DHT22;26336;44.696;10.622;2024-02-15T08:12:35;8.00;99.90
40638;DHT22;26336;44.696;10.622;2024-02-15T08:15:39;8.20;99.90
40638;DHT22;26336;44.696;10.622;2024-02-15T08:18:44;8.30;99.90
40638;DHT22;26336;44.696;10.622;2024-02-15T08:21:47;8.50;99.90
40638;DHT22;26336;44.696;10.622;2024-02-15T08:24:54;8.60;99.90
40638;DHT22;26336;44.696;10.622;2024-02-15T08:27:59;8.80;99.90
40638;DHT22;26336;44.696;10.622;2024-02-15T08:31:09;8.90;99.90
40638;DHT22;26336;44.696;10.622;2024-02-15T08:34:14;9.10;99.90
40638;DHT22;26336;44.696;10.622;2024-02-15T08:37:18;9.30;99.90
40638;DHT22;26336;44.696;10.622;2024-02-15T08:40:22;9.50;99.90
40638;DHT22;26336;44.696;10.622;2024-02-15T08:43:28;9.70;99.90
40638;DHT22;26336;44.696;10.622;2024-02-15T08:46:32;9.90;99.90
40638;DHT22;26336;44.696;10.622;2024-02-15T08:49:36;10.10;99.90
40638;DHT22;26336;44.696;10.622;2024-02-15T08:52:40;10.20;99.90
40638;DHT22;26336;44.696;10.622;2024-02-15T08:55:45;10.40;99.90
40638;DHT22;26336;44.696;10.622;2024-02-15T08:58:49;10.50;99.90
40638;DHT22;26336;44.696;10.622;2024-02-15T09:01:54;10.70;99.90
40638;DHT22;26336;44.696;10.622;2024-02-15T09:04:59;10.80;99.90
40638;DHT22;26336;44.696;10.622;2024-02-15T09:08:03;10.90;99.90
40638;DHT22;26336;44.696;10.622;2024-02-15T09:11:10;11.00;99.90
40638;DHT22;26336;44.696;10.622;2024-02-15T09:14:18;11.00;99.90
40638;DHT22;26336;44.696;10.622;2024-02-15T09:17:22;11.20;99.90
40638;DHT22;26336;44.696;10.622;2024-02-15T09:20:26;11.20;99.90
40638;DHT22;26336;44.696;10.622;2024-02-15T09:23:32;11.30;99.90
40638;DHT22;26336;44.696;10.622;2024-02-15T09:26:36;11.40;99.90
40638;DHT22;26336;44.696;10.622;2024-02-15T09:29:39;11.50;99.90
40638;DHT22;26336;44.696;10.622;2024-02-15T09:32:44;11.50;99.90
40638;DHT22;26336;44.696;10.622;2024-02-15T09:35:49;11.60;99.90
40638;DHT22;26336;44.696;10.622;2024-02-15T09:38:53;11.70;99.90
40638;DHT22;26336;44.696;10.622;2024-02-15T09:41:57;11.80;99.90
40638;DHT22;26336;44.696;10.622;2024-02-15T09:45:04;11.90;99.90
40638;DHT22;26336;44.696;10.622;2024-02-15T09:48:10;12.00;99.90
40638;DHT22;26336;44.696;10.622;2024-02-15T09:51:14;12.00;99.90
40638;DHT22;26336;44.696;10.622;2024-02-15T09:54:21;12.10;99.90
40638;DHT22;26336;44.696;10.622;2024-02-15T09:57:26;12.10;99.90
40638;DHT22;26336;44.696;10.622;2024-02-15T10:00:31;12.20;99.90
40638;DHT22;26336;44.696;10.622;2024-02-15T10:03:37;12.30;99.90
40638;DHT22;26336;44.696;10.622;2024-02-15T10:06:44;12.30;99.90
40638;DHT22;26336;44.696;10.622;2024-02-15T10:09:48;12.40;99.90
40638;DHT22;26336;44.696;10.622;2024-02-15T10:12:53;12.40;99.90
40638;DHT22;26336;44.696;10.622;2024-02-15T10:15:59;12.50;99.90
40638;DHT22;26336;44.696;10.622;2024-02-15T10:19:17;12.50;99.90
40638;DHT22;26336;44.696;10.622;2024-02-15T10:22:24;12.60;99.90
40638;DHT22;26336;44.696;10.622;2024-02-15T10:25:28;12.70;99.90
40638;DHT22;26336;44.696;10.622;2024-02-15T10:28:32;12.70;99.90
40638;DHT22;26336;44.696;10.622;2024-02-15T10:31:40;12.80;99.90
40638;DHT22;26336;44.696;10.622;2024-02-15T10:34:45;12.80;99.90
40638;DHT22;26336;44.696;10.622;2024-02-15T10:37:50;12.80;99.90
40638;DHT22;26336;44.696;10.622;2024-02-15T10:41:03;12.90;99.90
40638;DHT22;26336;44.696;10.622;2024-02-15T10:44:08;13.00;99.90
40638;DHT22;26336;44.696;10.622;2024-02-15T10:47:12;13.00;99.90
40638;DHT22;26336;44.696;10.622;2024-02-15T10:50:16;13.10;99.90
40638;DHT22;26336;44.696;10.622;2024-02-15T10:53:26;13.10;99.90
40638;DHT22;26336;44.696;10.622;2024-02-15T10:56:37;13.20;99.90
40638;DHT22;26336;44.696;10.622;2024-02-15T10:59:55;13.20;99.90
40638;DHT22;26336;44.696;10.622;2024-02-15T11:03:04;13.20;99.90
40638;DHT22;26336;44.696;10.622;2024-02-15T11:06:10;13.20;99.90
40638;DHT22;26336;44.696;10.622;2024-02-15T11:09:15;13.30;99.90
40638;DHT22;26336;44.696;10.622;2024-02-15T11:12:18;13.40;99.90
40638;DHT22;26336;44.696;10.622;2024-02-15T11:18:47;13.50;99.90
40638;DHT22;26336;44.696;10.622;2024-02-15T11:21:56;13.60;99.90
40638;DHT22;26336;44.696;10.622;2024-02-15T11:25:00;13.60;99.90
40638;DHT22;26336;44.696;10.622;2024-02-15T11:31:52;13.70;99.90
40638;DHT22;26336;44.696;10.622;2024-02-15T11:35:07;13.70;99.90
40638;DHT22;26336;44.696;10.622;2024-02-15T11:38:28;13.70;99.90
40638;DHT22;26336;44.696;10.622;2024-02-15T11:41:31;13.80;99.90
40638;DHT22;26336;44.696;10.622;2024-02-15T11:44:36;13.80;99.90
40638;DHT22;26336;44.696;10.622;2024-02-15T11:47:40;13.70;99.90
40638;DHT22;26336;44.696;10.622;2024-02-15T11:50:52;13.80;99.90
40638;DHT22;26336;44.696;10.622;2024-02-15T11:54:11;13.80;99.90
40638;DHT22;26336;44.696;10.622;2024-02-15T11:57:15;13.80;99.90
40638;DHT22;26336;44.696;10.622;2024-02-15T12:00:29;13.80;99.90
40638;DHT22;26336;44.696;10.622;2024-02-15T12:03:54;13.80;99.90
40638;DHT22;26336;44.696;10.622;2024-02-15T12:07:17;13.80;99.90
40638;DHT22;26336;44.696;10.622;2024-02-15T12:10:39;13.80;99.90
40638;DHT22;26336;44.696;10.622;2024-02-15T12:14:02;13.80;99.90
40638;DHT22;26336;44.696;10.622;2024-02-15T12:17:24;13.80;99.90
40638;DHT22;26336;44.696;10.622;2024-02-15T12:20:46;13.80;99.90
40638;DHT22;26336;44.696;10.622;2024-02-15T12:23:50;13.80;99.90
40638;DHT22;26336;44.696;10.622;2024-02-15T12:27:02;13.80;99.90
40638;DHT22;26336;44.696;10.622;2024-02-15T12:30:16;13.80;99.90
40638;DHT22;26336;44.696;10.622;2024-02-15T12:33:23;13.80;99.90
40638;DHT22;26336;44.696;10.622;2024-02-15T12:36:27;13.80;99.90
40638;DHT22;26336;44.696;10.622;2024-02-15T12:39:32;13.80;99.90
40638;DHT22;26336;44.696;10.622;2024-02-15T12:42:39;13.80;99.90
40638;DHT22;26336;44.696;10.622;2024-02-15T12:45:44;13.70;99.90
40638;DHT22;26336;44.696;10.622;2024-02-15T12:48:48;13.70;99.90
40638;DHT22;26336;44.696;10.622;2024-02-15T12:51:54;13.70;99.90
40638;DHT22;26336;44.696;10.622;2024-02-15T12:58:23;13.80;99.90
40638;DHT22;26336;44.696;10.622;2024-02-15T13:01:30;13.80;99.90
40638;DHT22;26336;44.696;10.622;2024-02-15T13:04:34;13.90;99.90
40638;DHT22;26336;44.696;10.622;2024-02-15T13:07:37;13.90;99.90
40638;DHT22;26336;44.696;10.622;2024-02-15T13:10:42;13.90;99.90
40638;DHT22;26336;44.696;10.622;2024-02-15T13:13:46;13.90;99.90
40638;DHT22;26336;44.696;10.622;2024-02-15T13:16:50;13.90;99.90
40638;DHT22;26336;44.696;10.622;2024-02-15T13:19:55;13.90;99.90
40638;DHT22;26336;44.696;10.622;2024-02-15T13:23:08;13.80;99.90
40638;DHT22;26336;44.696;10.622;2024-02-15T13:26:13;13.80;99.90
40638;DHT22;26336;44.696;10.622;2024-02-15T13:29:18;13.80;99.90
40638;DHT22;26336;44.696;10.622;2024-02-15T13:32:24;13.80;99.90
40638;DHT22;26336;44.696;10.622;2024-02-15T13:35:28;13.70;99.90
40638;DHT22;26336;44.696;10.622;2024-02-15T13:38:32;13.80;99.90
40638;DHT22;26336;44.696;10.622;2024-02-15T13:41:36;13.80;99.90
40638;DHT22;26336;44.696;10.622;2024-02-15T13:44:41;13.90;99.90
40638;DHT22;26336;44.696;10.622;2024-02-15T13:47:46;13.90;99.90
40638;DHT22;26336;44.696;10.622;2024-02-15T13:50:54;13.90;99.90
40638;DHT22;26336;44.696;10.622;2024-02-15T13:53:57;13.90;99.90
40638;DHT22;26336;44.696;10.622;2024-02-15T13:57:02;14.00;99.90
40638;DHT22;26336;44.696;10.622;2024-02-15T14:00:07;14.00;99.90
40638;DHT22;26336;44.696;10.622;2024-02-15T14:03:17;14.00;99.90
40638;DHT22;26336;44.696;10.622;2024-02-15T14:06:22;14.10;99.90
40638;DHT22;26336;44.696;10.622;2024-02-15T14:09:27;14.10;99.90
40638;DHT22;26336;44.696;10.622;2024-02-15T14:12:31;14.00;99.90
40638;DHT22;26336;44.696;10.622;2024-02-15T14:15:36;14.00;99.90
40638;DHT22;26336;44.696;10.622;2024-02-15T14:18:42;14.00;99.90
40638;DHT22;26336;44.696;10.622;2024-02-15T14:21:48;14.00;99.90
40638;DHT22;26336;44.696;10.622;2024-02-15T14:24:52;14.00;99.90
40638;DHT22;26336;44.696;10.622;2024-02-15T14:27:58;14.00;99.90
40638;DHT22;26336;44.696;10.622;2024-02-15T14:31:02;14.00;99.90
40638;DHT22;26336;44.696;10.622;2024-02-15T14:34:24;13.90;99.90
40638;DHT22;26336;44.696;10.622;2024-02-15T14:37:29;13.90;99.90
40638;DHT22;26336;44.696;10.622;2024-02-15T14:40:43;13.90;99.90
40638;DHT22;26336;44.696;10.622;2024-02-15T14:43:49;13.90;99.90
40638;DHT22;26336;44.696;10.622;2024-02-15T14:46:54;13.90;99.90
40638;DHT22;26336;44.696;10.622;2024-02-15T14:49:58;13.90;99.70
40638;DHT22;26336;44.696;10.622;2024-02-15T14:53:03;13.80;99.90
40638;DHT22;26336;44.696;10.622;2024-02-15T14:56:08;13.90;99.90
40638;DHT22;26336;44.696;10.622;2024-02-15T14:59:12;13.80;99.90
40638;DHT22;26336;44.696;10.622;2024-02-15T15:02:16;13.80;99.90
40638;DHT22;26336;44.696;10.622;2024-02-15T15:05:20;13.80;99.90
40638;DHT22;26336;44.696;10.622;2024-02-15T15:08:42;13.70;99.90
40638;DHT22;26336;44.696;10.622;2024-02-15T15:12:04;13.70;99.90
40638;DHT22;26336;44.696;10.622;2024-02-15T15:15:27;13.70;99.90
40638;DHT22;26336;44.696;10.622;2024-02-15T15:18:31;13.70;99.90
40638;DHT22;26336;44.696;10.622;2024-02-15T15:21:38;13.60;99.90
40638;DHT22;26336;44.696;10.622;2024-02-15T15:24:42;13.60;99.90
40638;DHT22;26336;44.696;10.622;2024-02-15T15:27:47;13.60;99.90
40638;DHT22;26336;44.696;10.622;2024-02-15T15:30:51;13.60;99.90
40638;DHT22;26336;44.696;10.622;2024-02-15T15:33:55;13.50;99.90
40638;DHT22;26336;44.696;10.622;2024-02-15T15:36:59;13.50;99.90
40638;DHT22;26336;44.696;10.622;2024-02-15T15:40:04;13.50;99.90
40638;DHT22;26336;44.696;10.622;2024-02-15T15:43:12;13.50;99.90
40638;DHT22;26336;44.696;10.622;2024-02-15T15:46:17;13.50;99.90
40638;DHT22;26336;44.696;10.622;2024-02-15T15:49:21;13.50;99.90
40638;DHT22;26336;44.696;10.622;2024-02-15T15:52:25;13.50;99.90
40638;DHT22;26336;44.696;10.622;2024-02-15T15:55:29;13.50;99.90
40638;DHT22;26336;44.696;10.622;2024-02-15T15:58:34;13.50;99.90
40638;DHT22;26336;44.696;10.622;2024-02-15T16:01:38;13.40;99.90
40638;DHT22;26336;44.696;10.622;2024-02-15T16:04:45;13.40;99.90
40638;DHT22;26336;44.696;10.622;2024-02-15T16:07:50;13.40;99.90
40638;DHT22;26336;44.696;10.622;2024-02-15T16:10:55;13.40;99.90
40638;DHT22;26336;44.696;10.622;2024-02-15T16:14:00;13.40;99.90
40638;DHT22;26336;44.696;10.622;2024-02-15T16:17:06;13.40;99.90
40638;DHT22;26336;44.696;10.622;2024-02-15T16:20:12;13.30;99.90
40638;DHT22;26336;44.696;10.622;2024-02-15T16:23:17;13.30;99.90
40638;DHT22;26336;44.696;10.622;2024-02-15T16:26:21;13.20;99.90
40638;DHT22;26336;44.696;10.622;2024-02-15T16:29:25;13.20;99.90
40638;DHT22;26336;44.696;10.622;2024-02-15T16:32:29;13.20;99.90
40638;DHT22;26336;44.696;10.622;2024-02-15T16:35:34;13.10;99.90
40638;DHT22;26336;44.696;10.622;2024-02-15T16:38:40;13.00;99.90
40638;DHT22;26336;44.696;10.622;2024-02-15T16:41:47;12.90;99.90
40638;DHT22;26336;44.696;10.622;2024-02-15T16:44:51;12.90;99.90
40638;DHT22;26336;44.696;10.622;2024-02-15T16:47:56;12.90;99.90
40638;DHT22;26336;44.696;10.622;2024-02-15T16:50:59;12.80;99.90
40638;DHT22;26336;44.696;10.622;2024-02-15T16:54:06;12.80;99.90
40638;DHT22;26336;44.696;10.622;2024-02-15T16:57:12;12.80;99.90
40638;DHT22;26336;44.696;10.622;2024-02-15T17:00:16;12.70;99.90
40638;DHT22;26336;44.696;10.622;2024-02-15T17:03:21;12.70;99.90
40638;DHT22;26336;44.696;10.622;2024-02-15T17:06:26;12.60;99.90
40638;DHT22;26336;44.696;10.622;2024-02-15T17:09:30;12.60;99.90
40638;DHT22;26336;44.696;10.622;2024-02-15T17:12:34;12.60;99.90
40638;DHT22;26336;44.696;10.622;2024-02-15T17:15:38;12.50;99.90
40638;DHT22;26336;44.696;10.622;2024-02-15T17:18:42;12.40;99.90
40638;DHT22;26336;44.696;10.622;2024-02-15T17:21:47;12.40;99.90
40638;DHT22;26336;44.696;10.622;2024-02-15T17:24:53;12.30;99.90
40638;DHT22;26336;44.696;10.622;2024-02-15T17:27:57;12.30;99.90
40638;DHT22;26336;44.696;10.622;2024-02-15T17:31:02;12.30;99.90
40638;DHT22;26336;44.696;10.622;2024-02-15T17:34:11;12.20;99.90
40638;DHT22;26336;44.696;10.622;2024-02-15T17:37:15;12.20;99.90
40638;DHT22;26336;44.696;10.622;2024-02-15T17:40:19;12.10;99.90
40638;DHT22;26336;44.696;10.622;2024-02-15T17:43:23;12.10;99.90
40638;DHT22;26336;44.696;10.622;2024-02-15T17:46:28;12.10;99.90
40638;DHT22;26336;44.696;10.622;2024-02-15T17:49:32;12.00;99.90
40638;DHT22;26336;44.696;10.622;2024-02-15T17:52:40;12.00;99.90
40638;DHT22;26336;44.696;10.622;2024-02-15T17:55:46;12.00;99.90
40638;DHT22;26336;44.696;10.622;2024-02-15T17:58:54;11.90;99.90
40638;DHT22;26336;44.696;10.622;2024-02-15T18:01:58;11.80;99.90
40638;DHT22;26336;44.696;10.622;2024-02-15T18:05:03;11.80;99.90
40638;DHT22;26336;44.696;10.622;2024-02-15T18:08:12;11.80;99.90
40638;DHT22;26336;44.696;10.622;2024-02-15T18:11:17;11.70;99.90
40638;DHT22;26336;44.696;10.622;2024-02-15T18:14:21;11.70;99.90
40638;DHT22;26336;44.696;10.622;2024-02-15T18:17:26;11.70;99.90
40638;DHT22;26336;44.696;10.622;2024-02-15T18:20:30;11.70;99.90
40638;DHT22;26336;44.696;10.622;2024-02-15T18:23:35;11.60;99.90
40638;DHT22;26336;44.696;10.622;2024-02-15T18:26:39;11.60;99.90
40638;DHT22;26336;44.696;10.622;2024-02-15T18:29:44;11.60;99.90
40638;DHT22;26336;44.696;10.622;2024-02-15T18:32:48;11.50;99.90
40638;DHT22;26336;44.696;10.622;2024-02-15T18:35:53;11.40;99.90
40638;DHT22;26336;44.696;10.622;2024-02-15T18:38:59;11.40;99.90
40638;DHT22;26336;44.696;10.622;2024-02-15T18:42:03;11.40;99.90
40638;DHT22;26336;44.696;10.622;2024-02-15T18:45:09;11.40;99.90
40638;DHT22;26336;44.696;10.622;2024-02-15T18:48:14;11.40;99.90
40638;DHT22;26336;44.696;10.622;2024-02-15T18:51:18;11.40;99.90
40638;DHT22;26336;44.696;10.622;2024-02-15T18:54:24;11.30;99.90
40638;DHT22;26336;44.696;10.622;2024-02-15T18:57:28;11.30;99.90
40638;DHT22;26336;44.696;10.622;2024-02-15T19:00:32;11.30;99.90
40638;DHT22;26336;44.696;10.622;2024-02-15T19:03:38;11.30;99.90
40638;DHT22;26336;44.696;10.622;2024-02-15T19:06:44;11.20;99.90
40638;DHT22;26336;44.696;10.622;2024-02-15T19:09:48;11.20;99.90
40638;DHT22;26336;44.696;10.622;2024-02-15T19:12:52;11.20;99.90
40638;DHT22;26336;44.696;10.622;2024-02-15T19:15:57;11.10;99.90
40638;DHT22;26336;44.696;10.622;2024-02-15T19:19:02;11.10;99.90
40638;DHT22;26336;44.696;10.622;2024-02-15T19:22:07;11.10;99.90
40638;DHT22;26336;44.696;10.622;2024-02-15T19:25:11;11.10;99.90
40638;DHT22;26336;44.696;10.622;2024-02-15T19:28:21;11.00;99.90
40638;DHT22;26336;44.696;10.622;2024-02-15T19:31:27;11.00;99.90
40638;DHT22;26336;44.696;10.622;2024-02-15T19:34:31;11.00;99.90